createdAt,value
2023-04-29T00:01:04.940Z,259
2023-04-29T00:03:24.843Z,259
2023-04-29T00:05:49.045Z,259
2023-04-29T00:08:03.524Z,259
2023-04-29T00:10:16.644Z,259
2023-04-29T00:12:28.480Z,259
2023-04-29T00:14:39.198Z,259
2023-04-29T00:16:53.542Z,258
2023-04-29T00:19:04.443Z,259
2023-04-29T00:21:17.180Z,259
2023-04-29T00:23:29.955Z,259
2023-04-29T00:25:41.055Z,259
2023-04-29T00:28:04.963Z,258
2023-04-29T00:30:16.806Z,259
2023-04-29T00:32:31.336Z,261
2023-04-29T00:34:47.744Z,259
2023-04-29T00:37:00.521Z,260
2023-04-29T00:39:13.972Z,230
2023-04-29T00:41:27.706Z,230
2023-04-29T00:43:39.301Z,240
2023-04-29T00:45:51.835Z,238
2023-04-29T00:48:05.976Z,254
2023-04-29T00:50:16.841Z,255
2023-04-29T00:52:31.640Z,262
2023-04-29T00:54:43.979Z,262
2023-04-29T00:56:57.608Z,259
2023-04-29T00:59:12.138Z,262
2023-04-29T01:01:24.679Z,262
2023-04-29T01:03:37.342Z,262
2023-04-29T01:05:48.701Z,262
2023-04-29T01:07:59.119Z,261
2023-04-29T01:10:09.672Z,261
2023-04-29T01:12:23.221Z,257
2023-04-29T01:14:36.180Z,257
2023-04-29T01:16:46.921Z,257
2023-04-29T01:19:04.004Z,257
2023-04-29T01:21:17.158Z,257
2023-04-29T01:23:28.019Z,257
2023-04-29T01:25:39.574Z,261
2023-04-29T01:27:51.537Z,260
2023-04-29T01:30:03.950Z,261
2023-04-29T01:32:14.218Z,258
2023-04-29T01:34:26.560Z,259
2023-04-29T01:36:37.640Z,259
2023-04-29T01:38:48.680Z,261
2023-04-29T01:41:02.831Z,261
2023-04-29T01:43:16.337Z,260
2023-04-29T01:45:27.436Z,261
2023-04-29T01:47:37.562Z,261
2023-04-29T01:49:47.658Z,261
2023-04-29T01:51:58.501Z,259
2023-04-29T01:54:09.561Z,261
2023-04-29T01:56:20.558Z,259
2023-04-29T01:58:31.650Z,259
2023-04-29T02:00:42.045Z,255
2023-04-29T02:02:52.486Z,257
2023-04-29T02:05:04.483Z,258
2023-04-29T02:07:17.445Z,257
2023-04-29T02:09:30.838Z,257
2023-04-29T02:11:41.418Z,257
2023-04-29T02:13:52.820Z,257
2023-04-29T02:16:04.041Z,257
2023-04-29T02:18:17.317Z,257
2023-04-29T02:20:28.639Z,257
2023-04-29T02:22:39.940Z,257
2023-04-29T02:24:52.501Z,257
2023-04-29T02:27:03.845Z,257
2023-04-29T02:29:25.696Z,257
2023-04-29T02:31:38.333Z,257
2023-04-29T02:33:49.426Z,257
2023-04-29T02:36:01.763Z,257
2023-04-29T02:38:16.683Z,257
2023-04-29T02:40:28.539Z,257
2023-04-29T02:42:41.650Z,258
2023-04-29T02:44:53.004Z,259
2023-04-29T02:47:05.129Z,261
2023-04-29T02:49:15.822Z,257
2023-04-29T02:51:27.830Z,257
2023-04-29T02:53:38.596Z,257
2023-04-29T02:55:49.924Z,258
2023-04-29T02:58:02.572Z,257
2023-04-29T03:00:14.141Z,257
2023-04-29T03:02:25.880Z,258
2023-04-29T03:04:37.445Z,257
2023-04-29T03:06:48.342Z,257
2023-04-29T03:08:58.914Z,257
2023-04-29T03:11:11.568Z,257
2023-04-29T03:13:23.889Z,257
2023-04-29T03:15:35.202Z,257
2023-04-29T03:17:49.883Z,257
2023-04-29T03:20:01.003Z,257
2023-04-29T03:22:16.215Z,257
2023-04-29T03:24:28.620Z,257
2023-04-29T03:26:40.981Z,258
2023-04-29T03:28:57.252Z,257
2023-04-29T03:31:11.050Z,257
2023-04-29T03:33:23.202Z,257
2023-04-29T03:35:46.097Z,257
2023-04-29T03:37:58.816Z,257
2023-04-29T03:40:12.955Z,257
2023-04-29T03:42:25.896Z,258
2023-04-29T03:44:37.273Z,258
2023-04-29T03:46:49.456Z,258
2023-04-29T03:49:02.042Z,257
2023-04-29T03:51:12.795Z,257
2023-04-29T03:53:24.755Z,257
2023-04-29T03:55:35.999Z,257
2023-04-29T03:57:48.193Z,257
2023-04-29T03:59:59.416Z,257
2023-04-29T04:02:15.669Z,257
2023-04-29T04:04:28.063Z,257
2023-04-29T04:06:43.754Z,256
2023-04-29T04:08:59.078Z,256
2023-04-29T04:11:11.363Z,256
2023-04-29T04:13:23.845Z,256
2023-04-29T04:15:38.528Z,255
2023-04-29T04:17:59.926Z,256
2023-04-29T04:23:22.899Z,256
2023-04-29T04:25:35.406Z,256
2023-04-29T04:27:51.205Z,256
2023-04-29T04:30:09.556Z,257
2023-04-29T04:32:24.490Z,257
2023-04-29T04:34:46.127Z,257
2023-04-29T04:37:01.945Z,257
2023-04-29T04:39:13.605Z,256
2023-04-29T04:41:27.662Z,257
2023-04-29T04:43:39.161Z,256
2023-04-29T04:45:51.374Z,257
2023-04-29T04:48:04.565Z,257
2023-04-29T04:50:16.452Z,257
2023-04-29T04:52:29.965Z,257
2023-04-29T04:54:41.154Z,257
2023-04-29T04:56:54.644Z,257
2023-04-29T04:59:06.367Z,256
2023-04-29T05:01:17.431Z,257
2023-04-29T05:03:29.118Z,257
2023-04-29T05:05:55.569Z,258
2023-04-29T05:08:08.494Z,257
2023-04-29T05:10:29.562Z,257
2023-04-29T05:12:40.926Z,257
2023-04-29T05:14:53.721Z,257
2023-04-29T05:17:06.514Z,257
2023-04-29T05:19:19.961Z,257
2023-04-29T05:21:34.662Z,257
2023-04-29T05:23:45.585Z,259
2023-04-29T05:25:56.971Z,257
2023-04-29T05:28:12.533Z,257
2023-04-29T05:30:35.669Z,257
2023-04-29T05:32:53.298Z,258
2023-04-29T05:35:07.864Z,257
2023-04-29T05:37:20.204Z,257
2023-04-29T05:39:33.329Z,257
2023-04-29T05:41:50.046Z,257
2023-04-29T05:44:01.148Z,257
2023-04-29T05:46:16.516Z,258
2023-04-29T05:48:29.169Z,257
2023-04-29T05:50:48.043Z,257
2023-04-29T05:53:01.883Z,258
2023-04-29T05:55:16.790Z,257
2023-04-29T05:57:28.163Z,259
2023-04-29T05:59:44.515Z,259
2023-04-29T06:01:58.874Z,259
2023-04-29T06:04:10.867Z,258
2023-04-29T06:06:22.203Z,258
2023-04-29T06:08:32.669Z,259
2023-04-29T06:10:46.589Z,259
2023-04-29T06:12:56.785Z,259
2023-04-29T06:15:11.733Z,259
2023-04-29T06:17:23.894Z,259
2023-04-29T06:19:34.472Z,258
2023-04-29T06:21:51.797Z,259
2023-04-29T06:24:08.444Z,258
2023-04-29T06:26:18.706Z,258
2023-04-29T06:28:38.648Z,259
2023-04-29T06:31:02.973Z,257
2023-04-29T06:33:17.206Z,257
2023-04-29T06:35:28.929Z,257
2023-04-29T06:37:42.248Z,258
2023-04-29T06:39:56.527Z,258
2023-04-29T06:42:18.613Z,258
2023-04-29T06:45:25.669Z,258
2023-04-29T06:57:11.612Z,259
2023-04-29T12:20:49.197Z,256
2023-04-29T12:30:02.659Z,256
2023-04-29T12:32:40.244Z,257
2023-04-29T12:56:21.286Z,254
2023-04-29T13:28:22.990Z,249
2023-04-29T13:30:41.244Z,257
2023-04-29T13:33:16.420Z,257
2023-04-29T13:35:34.864Z,256
2023-04-29T13:38:29.992Z,253
2023-04-29T13:40:59.661Z,255
2023-04-29T13:43:50.609Z,253
2023-04-29T13:46:13.803Z,248
2023-04-29T13:49:58.420Z,249
2023-04-29T14:04:50.581Z,262
2023-04-29T14:07:37.084Z,256
2023-04-29T14:23:41.768Z,256
2023-04-29T14:26:35.412Z,257
2023-04-29T14:28:51.188Z,255
2023-04-29T14:31:16.532Z,255
2023-04-29T14:33:38.749Z,254
2023-04-29T14:38:42.994Z,245
2023-04-29T14:41:22.664Z,243
2023-04-29T14:43:38.309Z,248
2023-04-29T14:45:58.850Z,253
2023-04-29T14:48:14.471Z,253
2023-04-29T14:50:37.268Z,247
2023-04-29T14:53:08.167Z,253
2023-04-29T14:55:50.081Z,246
2023-04-29T14:58:10.900Z,254
2023-04-29T15:00:38.549Z,244
2023-04-29T15:03:03.892Z,250
2023-04-29T15:06:02.040Z,252
2023-04-29T15:09:04.240Z,252
2023-04-29T15:11:40.170Z,249
2023-04-29T15:14:19.343Z,252
2023-04-29T15:17:44.154Z,254
2023-04-29T15:20:13.851Z,253
2023-04-29T15:22:43.555Z,252
2023-04-29T15:25:25.608Z,252
2023-04-29T15:27:39.374Z,249
2023-04-29T15:29:56.392Z,248
2023-04-29T15:32:13.318Z,249
2023-04-29T15:34:41.912Z,249
2023-04-29T15:37:06.427Z,249
2023-04-29T15:39:35.176Z,248
2023-04-29T15:41:58.205Z,248
2023-04-29T15:44:16.709Z,249
2023-04-29T15:46:53.231Z,252
2023-04-29T15:49:38.176Z,252
2023-04-29T15:52:13.873Z,250
2023-04-29T15:57:48.506Z,249
2023-04-29T16:00:14.776Z,252
2023-04-29T16:03:11.231Z,249
2023-04-29T16:05:44.233Z,249
2023-04-29T16:58:06.410Z,247
2023-04-29T17:00:25.840Z,244
2023-04-29T17:05:56.533Z,244
2023-04-29T17:08:14.118Z,244
2023-04-29T17:10:36.579Z,244
2023-04-29T17:13:09.016Z,244
2023-04-29T17:15:59.622Z,246
2023-04-29T17:18:18.033Z,262
2023-04-29T17:20:39.219Z,264
2023-04-29T17:22:58.262Z,262
2023-04-29T17:25:15.276Z,262
2023-04-29T17:27:35.535Z,262
2023-04-29T17:29:49.154Z,260
2023-04-29T17:32:11.892Z,261
2023-04-29T17:34:42.161Z,257
2023-04-29T17:37:00.141Z,262
2023-04-29T17:39:26.243Z,253
2023-04-29T17:41:51.359Z,256
2023-04-29T17:44:29.537Z,253
2023-04-29T17:46:54.299Z,252
2023-04-29T17:49:20.780Z,256
2023-04-29T17:51:39.753Z,256
2023-04-29T17:53:59.602Z,256
2023-04-29T17:56:16.381Z,254
2023-04-29T17:58:28.023Z,253
2023-04-29T18:00:44.539Z,255
2023-04-29T18:03:03.782Z,255
2023-04-29T18:05:25.144Z,256
2023-04-29T18:07:41.538Z,257
2023-04-29T18:09:58.698Z,255
2023-04-29T18:12:25.298Z,257
2023-04-29T18:14:52.681Z,256
2023-04-29T18:17:10.117Z,256
2023-04-29T18:19:48.482Z,253
2023-04-29T18:22:04.759Z,255
2023-04-29T18:24:28.920Z,255
2023-04-29T18:26:46.924Z,255
2023-04-29T18:29:06.697Z,256
2023-04-29T18:31:25.155Z,254
2023-04-29T18:33:39.478Z,254
2023-04-29T18:36:02.001Z,253
2023-04-29T18:38:21.362Z,249
2023-04-29T18:40:39.435Z,255
2023-04-29T18:42:58.153Z,255
2023-04-29T18:45:19.174Z,254
2023-04-29T18:47:35.692Z,255
2023-04-29T18:49:53.853Z,255
2023-04-29T18:52:13.798Z,254
2023-04-29T18:54:29.498Z,255
2023-04-29T18:56:49.059Z,255
2023-04-29T18:59:02.735Z,254
2023-04-29T19:01:21.009Z,254
2023-04-29T19:03:45.057Z,254
2023-04-29T19:06:02.365Z,255
2023-04-29T19:08:26.658Z,254
2023-04-29T19:10:53.156Z,254
2023-04-29T19:13:19.437Z,254
2023-04-29T19:15:42.391Z,254
2023-04-29T19:18:00.535Z,237
2023-04-29T19:20:24.540Z,262
2023-04-29T19:23:00.676Z,262
2023-04-29T19:25:38.835Z,259
2023-04-29T19:27:54.199Z,261
2023-04-29T19:30:17.728Z,259
2023-04-29T19:32:48.636Z,259
2023-04-29T19:35:26.923Z,258
2023-04-29T19:37:51.476Z,259
2023-04-29T19:40:21.178Z,260
2023-04-29T19:42:34.121Z,259
2023-04-29T19:44:59.177Z,257
2023-04-29T19:47:38.487Z,255
2023-04-29T19:50:05.300Z,252
2023-04-29T19:52:38.567Z,254
2023-04-29T19:55:08.759Z,245
2023-04-29T19:57:27.681Z,247
2023-04-29T19:59:43.927Z,249
2023-04-29T20:02:03.960Z,247
2023-04-29T20:04:49.927Z,247
2023-04-29T20:07:25.158Z,243
2023-04-29T20:39:32.030Z,256
2023-04-29T20:42:36.260Z,257
2023-04-29T22:26:44.262Z,274
2023-04-29T22:32:25.295Z,267
2023-04-29T22:45:49.859Z,268
